Brooklyn, Iowa
Current Conditions -  °F | °C
As of 2:55 PM on Tuesday 21 Oct 2014 (Local Time) from KGGI Reporting Station
Clear Clear  
Wind Chill: 62°   Ceiling: Unl
Heat Index: 62°   Visibility: 10mi
Dew Point: 42°   Wind: 8mph
Humidity: 47%   Direction: 110°ESE
Pressure: 30.15"   Gusts: NA
Location:  41.73°N, 92.45°W
Report Text: KGGI 211955Z AUTO 11007KT 10SM CLR 17/05 A3015 RMK AO2 T01660053
Loading
Personal Weather Stations






























Interactive Weather Map
Tropical Storm Tracking
New forecast layout! Learn more

10-Day Weather Forecast

Advertisements
Track Severe Weather on mobile